Ezel, Kentucky
Current Conditions -  °F | °C
As of 9:53 AM on Friday 28 Nov 2014 (Local Time) from KJKL Reporting Station
Broken Clouds Broken Clouds  
Wind Chill: 22°   Ceiling: 3000
Heat Index: 28°   Visibility: 10mi
Dew Point: 16°   Wind: 6mph
Humidity: 61%   Direction: 240°WSW
Pressure: 30.4"   Gusts: NA
Location:  37.89°N, 83.44°W
Report Text: KJKL 281453Z AUTO 24005KT 10SM BKN030 M02/M09 A3040 RMK AO2 SLP306 T10221089 51005
Loading
Personal Weather Stations






























Interactive Weather Map New forecast layout! Learn more

10-Day Weather Forecast

Advertisements
Track Severe Weather on mobile